createdAt,value
2022-12-15T00:02:19.490Z,3.50
2022-12-15T00:05:05.612Z,3.50
2022-12-15T00:07:51.261Z,3.60
2022-12-15T00:10:36.829Z,3.60
2022-12-15T00:13:22.373Z,3.70
2022-12-15T00:16:08.067Z,3.60
2022-12-15T00:18:53.338Z,3.60
2022-12-15T00:21:38.572Z,3.60
2022-12-15T00:24:24.250Z,3.50
2022-12-15T00:27:09.651Z,3.40
2022-12-15T00:29:54.996Z,3.50
2022-12-15T00:32:40.966Z,3.40
2022-12-15T00:35:27.024Z,3.30
2022-12-15T00:38:12.298Z,3.50
2022-12-15T00:40:38.969Z,3.50
2022-12-15T00:43:05.844Z,3.50
2022-12-15T00:45:51.370Z,3.50
2022-12-15T00:48:18.130Z,3.50
2022-12-15T00:50:54.267Z,3.60
2022-12-15T00:53:41.517Z,3.60
2022-12-15T00:56:28.230Z,3.60
2022-12-15T00:59:13.722Z,3.60
2022-12-15T01:01:59.538Z,3.60
2022-12-15T01:04:45.562Z,3.60
2022-12-15T01:07:31.065Z,3.60
2022-12-15T01:10:16.745Z,3.70
2022-12-15T01:13:02.188Z,3.70
2022-12-15T01:15:47.871Z,3.70
2022-12-15T01:18:33.118Z,3.70
2022-12-15T01:21:01.828Z,3.60
2022-12-15T01:23:29.182Z,3.70
2022-12-15T01:25:56.197Z,3.60
2022-12-15T01:28:23.433Z,3.60
2022-12-15T01:30:50.948Z,3.60
2022-12-15T01:33:18.806Z,3.70
2022-12-15T01:35:49.549Z,3.70
2022-12-15T01:38:16.299Z,3.80
2022-12-15T01:41:05.019Z,3.80
2022-12-15T01:43:37.282Z,3.80
2022-12-15T01:46:09.817Z,3.80
2022-12-15T01:48:42.508Z,3.90
2022-12-15T01:51:33.602Z,4.30
2022-12-15T01:54:00.428Z,3.80
2022-12-15T01:56:33.847Z,3.80
2022-12-15T01:59:07.602Z,3.80
2022-12-15T02:01:34.776Z,3.80
2022-12-15T02:04:02.326Z,3.80
2022-12-15T02:06:29.764Z,3.80
2022-12-15T02:08:58.647Z,3.70
2022-12-15T02:11:42.882Z,3.80
2022-12-15T02:14:11.580Z,3.90
2022-12-15T02:17:14.399Z,3.80
2022-12-15T02:20:05.169Z,3.90
2022-12-15T02:22:56.869Z,4.00
2022-12-15T02:25:45.568Z,4.00
2022-12-15T02:28:42.855Z,4.00
2022-12-15T02:31:35.542Z,4.00
2022-12-15T02:34:13.432Z,3.90
2022-12-15T02:36:44.585Z,4.00
2022-12-15T02:39:14.910Z,4.00
2022-12-15T02:41:44.710Z,4.00
2022-12-15T02:44:22.756Z,3.90
2022-12-15T02:47:08.518Z,3.90
2022-12-15T02:50:04.681Z,3.90
2022-12-15T02:52:49.488Z,3.80
2022-12-15T02:55:29.550Z,3.80
2022-12-15T02:58:08.388Z,3.80
2022-12-15T03:00:41.126Z,3.80
2022-12-15T03:03:08.516Z,3.70
2022-12-15T03:05:35.815Z,3.90
2022-12-15T03:08:02.853Z,3.70
2022-12-15T03:10:29.702Z,3.70
2022-12-15T03:12:56.369Z,3.70
2022-12-15T03:15:23.160Z,4.50
2022-12-15T03:17:49.938Z,3.80
2022-12-15T03:20:16.707Z,3.80
2022-12-15T03:22:44.593Z,3.80
2022-12-15T03:25:11.292Z,3.70
2022-12-15T03:27:38.058Z,3.80
2022-12-15T03:30:06.075Z,3.80
2022-12-15T03:32:32.787Z,3.80
2022-12-15T03:35:01.078Z,3.70
2022-12-15T03:37:28.166Z,3.60
2022-12-15T03:39:54.939Z,3.60
2022-12-15T03:42:41.753Z,3.60
2022-12-15T03:45:08.925Z,3.60
2022-12-15T03:47:35.623Z,3.60
2022-12-15T03:50:02.398Z,3.70
2022-12-15T03:52:29.087Z,3.70
2022-12-15T03:54:55.761Z,3.70
2022-12-15T03:57:23.291Z,3.80
2022-12-15T03:59:50.099Z,3.80
2022-12-15T04:02:17.261Z,3.90
2022-12-15T04:04:44.333Z,3.80
2022-12-15T04:07:11.149Z,3.80
2022-12-15T04:09:37.973Z,3.80
2022-12-15T04:12:05.007Z,3.70
2022-12-15T04:14:31.887Z,3.70
2022-12-15T04:16:58.696Z,3.70
2022-12-15T04:19:43.910Z,3.60
2022-12-15T04:22:14.930Z,3.60
2022-12-15T04:25:03.228Z,3.70
2022-12-15T04:27:48.774Z,3.60
2022-12-15T04:30:34.592Z,3.70
2022-12-15T04:33:21.093Z,3.70
2022-12-15T04:36:09.209Z,3.70
2022-12-15T04:38:54.807Z,3.70
2022-12-15T04:41:41.958Z,3.70
2022-12-15T04:44:29.106Z,3.70
2022-12-15T04:47:14.583Z,3.80
2022-12-15T04:49:59.972Z,3.80
2022-12-15T04:52:46.492Z,3.80
2022-12-15T04:55:32.058Z,3.80
2022-12-15T04:58:17.400Z,3.70
2022-12-15T05:01:02.813Z,3.70
2022-12-15T05:03:48.161Z,3.70
2022-12-15T05:06:33.656Z,3.70
2022-12-15T05:09:19.270Z,3.60
2022-12-15T05:12:04.762Z,3.70
2022-12-15T05:14:50.364Z,3.60
2022-12-15T05:17:39.917Z,3.60
2022-12-15T05:20:27.556Z,3.60
2022-12-15T05:23:14.155Z,3.60
2022-12-15T05:26:00.222Z,3.60
2022-12-15T05:28:46.202Z,3.70
2022-12-15T05:31:32.295Z,3.60
2022-12-15T05:34:04.799Z,3.80
2022-12-15T05:36:32.807Z,3.80
2022-12-15T05:38:59.652Z,3.70
2022-12-15T05:41:26.909Z,3.70
2022-12-15T05:43:53.790Z,3.80
2022-12-15T05:46:20.755Z,3.70
2022-12-15T05:48:47.731Z,3.80
2022-12-15T05:51:15.059Z,3.80
2022-12-15T05:53:42.582Z,3.80
2022-12-15T05:56:11.960Z,3.80
2022-12-15T05:58:44.807Z,3.80
2022-12-15T06:01:15.569Z,3.80
2022-12-15T06:03:43.068Z,3.90
2022-12-15T06:06:11.405Z,3.90
2022-12-15T06:08:39.732Z,3.90
2022-12-15T06:11:06.992Z,3.80
2022-12-15T06:13:37.026Z,3.80
2022-12-15T06:16:15.692Z,3.80
2022-12-15T06:18:50.143Z,3.70
2022-12-15T06:21:23.697Z,3.80
2022-12-15T06:23:51.342Z,3.70
2022-12-15T06:26:25.437Z,3.80
2022-12-15T06:28:54.355Z,3.80
2022-12-15T06:31:25.467Z,3.80
2022-12-15T06:34:01.697Z,3.90
2022-12-15T06:36:30.718Z,3.90
2022-12-15T06:39:02.220Z,3.90
2022-12-15T06:41:32.257Z,3.90
2022-12-15T06:44:00.206Z,4.20
2022-12-15T06:46:29.040Z,3.90
2022-12-15T06:48:56.100Z,4.00
2022-12-15T06:51:23.082Z,3.90
2022-12-15T06:53:54.115Z,3.90
2022-12-15T06:56:27.284Z,3.90
2022-12-15T06:58:59.353Z,3.80
2022-12-15T07:01:26.370Z,5.40
2022-12-15T07:03:54.099Z,3.80
2022-12-15T07:06:21.410Z,3.80
2022-12-15T07:08:53.896Z,3.80
2022-12-15T07:11:21.900Z,3.80
2022-12-15T07:13:50.756Z,3.80
2022-12-15T07:16:18.142Z,3.70
2022-12-15T07:18:45.276Z,3.90
2022-12-15T07:21:12.654Z,3.80
2022-12-15T07:23:54.127Z,3.80
2022-12-15T07:26:21.881Z,3.70
2022-12-15T07:28:48.626Z,3.80
2022-12-15T07:31:19.511Z,3.80
2022-12-15T07:33:48.203Z,3.70
2022-12-15T07:36:15.395Z,3.80
2022-12-15T07:38:42.213Z,3.80
2022-12-15T07:41:10.303Z,3.90
2022-12-15T07:43:38.127Z,3.90
2022-12-15T07:46:06.205Z,4.00
2022-12-15T07:48:33.444Z,3.90
2022-12-15T07:51:11.069Z,3.90
2022-12-15T07:53:42.506Z,3.90
2022-12-15T07:56:10.425Z,3.90
2022-12-15T07:58:38.276Z,3.90
2022-12-15T08:01:07.411Z,3.80
2022-12-15T08:03:35.680Z,3.80
2022-12-15T08:06:20.439Z,3.80
2022-12-15T08:08:50.490Z,3.80
2022-12-15T08:11:20.809Z,3.90
2022-12-15T08:14:04.998Z,3.90
2022-12-15T08:16:34.851Z,3.90
2022-12-15T08:19:02.348Z,3.80
2022-12-15T08:21:31.195Z,3.80
2022-12-15T08:23:58.083Z,3.80
2022-12-15T08:26:30.026Z,3.80
2022-12-15T08:29:11.767Z,3.90
2022-12-15T08:31:44.624Z,3.90
2022-12-15T08:34:11.408Z,3.90
2022-12-15T08:36:38.259Z,3.90
2022-12-15T08:39:05.211Z,3.90
2022-12-15T08:41:33.065Z,4.00
2022-12-15T08:44:01.706Z,4.00
2022-12-15T08:46:33.815Z,4.00
2022-12-15T08:49:01.955Z,4.00
2022-12-15T08:51:30.568Z,4.10
2022-12-15T08:53:58.925Z,4.00
2022-12-15T08:56:26.661Z,4.00
2022-12-15T08:58:59.021Z,4.00
2022-12-15T09:01:27.299Z,4.10
2022-12-15T09:03:55.893Z,4.10
2022-12-15T09:06:25.853Z,4.20
2022-12-15T09:09:00.640Z,4.20
2022-12-15T09:11:28.916Z,4.20
2022-12-15T09:13:55.798Z,4.30
2022-12-15T09:16:23.524Z,4.30
2022-12-15T09:18:53.044Z,4.30
2022-12-15T09:21:23.129Z,4.30
2022-12-15T09:23:52.714Z,4.30
2022-12-15T09:26:21.719Z,4.30
2022-12-15T09:28:50.884Z,4.20
2022-12-15T09:31:23.468Z,4.20
2022-12-15T09:33:53.284Z,4.30
2022-12-15T09:36:20.393Z,4.30
2022-12-15T09:38:47.272Z,4.30
2022-12-15T09:41:14.041Z,4.40
2022-12-15T09:44:07.350Z,4.30
2022-12-15T09:47:29.572Z,4.40
2022-12-15T09:49:58.440Z,4.30
2022-12-15T09:52:43.186Z,4.40
2022-12-15T09:55:21.138Z,4.40
2022-12-15T09:57:56.548Z,4.20
2022-12-15T10:00:37.123Z,4.20
2022-12-15T10:03:40.611Z,4.20
2022-12-15T10:06:29.779Z,4.20
2022-12-15T10:09:08.421Z,4.20
2022-12-15T10:12:03.430Z,4.20
2022-12-15T10:14:38.010Z,4.20
2022-12-15T10:17:14.262Z,4.30
2022-12-15T10:19:45.692Z,4.40
2022-12-15T10:22:23.344Z,4.40
2022-12-15T10:25:11.546Z,4.40
2022-12-15T10:28:02.541Z,4.40
2022-12-15T10:30:29.756Z,4.50
2022-12-15T10:32:59.276Z,4.50
2022-12-15T10:35:30.023Z,4.60
2022-12-15T10:38:06.760Z,4.60
2022-12-15T10:40:50.184Z,4.60
2022-12-15T10:43:26.787Z,4.60
2022-12-15T10:46:14.017Z,4.60
2022-12-15T10:48:42.697Z,4.60
2022-12-15T10:51:32.783Z,4.50
2022-12-15T10:54:05.292Z,4.60
2022-12-15T10:56:34.288Z,4.50
2022-12-15T10:59:23.577Z,4.60
2022-12-15T11:01:51.561Z,4.50
2022-12-15T11:04:32.413Z,4.50
2022-12-15T11:07:01.623Z,4.50
2022-12-15T11:09:37.267Z,4.50
2022-12-15T11:12:43.977Z,4.50
2022-12-15T11:15:31.142Z,4.60
2022-12-15T11:18:35.510Z,4.50
2022-12-15T11:21:11.829Z,4.60
2022-12-15T11:23:38.492Z,4.60
2022-12-15T11:26:46.978Z,4.60
2022-12-15T11:29:30.138Z,4.70
2022-12-15T11:32:01.447Z,4.70
2022-12-15T11:34:46.467Z,4.60
2022-12-15T11:37:40.184Z,4.60
2022-12-15T11:40:39.828Z,4.60
2022-12-15T11:43:25.460Z,4.60
2022-12-15T11:46:17.357Z,4.60
2022-12-15T11:49:11.862Z,4.60
2022-12-15T11:51:52.800Z,4.60
2022-12-15T11:54:19.680Z,4.70
2022-12-15T11:57:21.561Z,4.70
2022-12-15T12:00:06.893Z,4.70
2022-12-15T12:02:52.022Z,4.70
2022-12-15T12:05:31.142Z,4.80
2022-12-15T12:08:09.033Z,4.80
2022-12-15T12:11:02.538Z,4.70
2022-12-15T12:13:43.550Z,4.60
2022-12-15T12:16:28.172Z,4.60
2022-12-15T12:19:02.618Z,4.60
2022-12-15T12:21:43.078Z,4.60
2022-12-15T12:24:09.906Z,4.50
2022-12-15T12:26:50.685Z,4.50
2022-12-15T12:29:28.365Z,4.50
2022-12-15T12:32:04.117Z,4.50
2022-12-15T12:35:30.597Z,4.50
2022-12-15T12:38:07.491Z,4.60
2022-12-15T12:40:40.290Z,4.60
2022-12-15T12:43:14.500Z,4.60
2022-12-15T12:46:04.057Z,4.70
2022-12-15T12:48:40.288Z,4.70
2022-12-15T12:51:12.763Z,5.80
2022-12-15T12:53:39.689Z,4.70
2022-12-15T12:56:06.874Z,4.70
2022-12-15T12:58:33.562Z,4.70
2022-12-15T13:01:25.978Z,4.80
2022-12-15T13:04:13.942Z,4.90
2022-12-15T13:06:40.831Z,4.90
2022-12-15T13:09:16.914Z,6.30
2022-12-15T13:11:52.648Z,4.90
2022-12-15T13:14:34.798Z,5.00
2022-12-15T13:17:27.702Z,5.00
2022-12-15T13:20:00.634Z,5.00
2022-12-15T13:22:35.753Z,5.10
2022-12-15T13:25:23.131Z,5.10
2022-12-15T13:27:57.832Z,5.10
2022-12-15T13:30:25.005Z,5.00
2022-12-15T13:32:54.592Z,5.20
2022-12-15T13:35:31.258Z,5.00
2022-12-15T13:38:03.197Z,4.90
2022-12-15T13:40:35.854Z,4.90
2022-12-15T13:43:05.336Z,5.00
2022-12-15T13:45:42.983Z,5.00
2022-12-15T13:48:35.017Z,5.00
2022-12-15T13:51:26.977Z,5.10
2022-12-15T13:54:04.273Z,5.10
2022-12-15T13:56:58.752Z,5.20
2022-12-15T13:59:35.000Z,5.20
2022-12-15T14:02:02.001Z,5.00
2022-12-15T14:04:28.948Z,5.10
2022-12-15T14:07:00.149Z,5.10
2022-12-15T14:09:36.695Z,5.00
2022-12-15T14:12:06.223Z,5.00
2022-12-15T14:14:36.938Z,4.90
2022-12-15T14:17:09.086Z,5.00
2022-12-15T14:19:41.359Z,4.90
2022-12-15T14:22:29.712Z,6.00
2022-12-15T14:25:04.351Z,4.90
2022-12-15T14:27:33.446Z,4.80
2022-12-15T14:30:25.527Z,4.80
2022-12-15T14:33:09.219Z,4.80
2022-12-15T14:35:40.191Z,4.90
2022-12-15T14:38:13.034Z,4.90
2022-12-15T14:40:41.125Z,4.90
2022-12-15T14:43:17.448Z,5.50
2022-12-15T14:45:44.321Z,3.80
2022-12-15T14:48:40.455Z,4.80
2022-12-15T14:51:11.177Z,4.80
2022-12-15T14:53:40.574Z,4.70
2022-12-15T14:56:27.621Z,4.70
2022-12-15T14:59:04.425Z,4.60
2022-12-15T15:01:57.912Z,4.70
2022-12-15T15:04:31.274Z,4.70
2022-12-15T15:07:07.685Z,4.80
2022-12-15T15:09:43.494Z,4.80
2022-12-15T15:12:17.280Z,4.80
2022-12-15T15:15:00.093Z,4.70
2022-12-15T15:17:37.481Z,4.70
2022-12-15T15:20:16.508Z,4.60
2022-12-15T15:22:46.120Z,4.50
2022-12-15T15:25:23.057Z,4.50
2022-12-15T15:27:50.070Z,4.60
2022-12-15T15:30:20.246Z,4.60
2022-12-15T15:32:58.229Z,4.60
2022-12-15T15:35:30.847Z,4.60
2022-12-15T15:38:27.018Z,4.60
2022-12-15T15:41:00.123Z,4.60
2022-12-15T15:43:28.356Z,4.50
2022-12-15T15:46:02.729Z,4.50
2022-12-15T15:48:39.494Z,4.60
2022-12-15T15:51:08.800Z,4.60
2022-12-15T15:53:36.216Z,4.60
2022-12-15T15:56:06.566Z,4.50
2022-12-15T15:58:35.140Z,4.60
2022-12-15T16:01:06.741Z,4.60
2022-12-15T16:03:36.672Z,4.60
2022-12-15T16:06:06.361Z,4.60
2022-12-15T16:08:36.896Z,4.50
2022-12-15T16:11:03.788Z,4.50
2022-12-15T16:13:30.538Z,4.40
2022-12-15T16:15:57.486Z,4.50
2022-12-15T16:18:24.301Z,4.80
2022-12-15T16:20:52.095Z,4.50
2022-12-15T16:23:22.535Z,4.60
2022-12-15T16:26:00.646Z,4.60
2022-12-15T16:28:32.188Z,4.50
2022-12-15T16:30:59.340Z,4.60
2022-12-15T16:33:26.161Z,4.50
2022-12-15T16:35:53.844Z,4.50
2022-12-15T16:38:25.737Z,4.60
2022-12-15T16:40:52.967Z,4.60
2022-12-15T16:43:24.602Z,4.60
2022-12-15T16:45:53.235Z,4.70
2022-12-15T16:48:21.048Z,4.70
2022-12-15T16:50:53.594Z,4.80
2022-12-15T16:53:29.252Z,4.80
2022-12-15T16:55:58.435Z,4.80
2022-12-15T16:58:27.415Z,5.00
2022-12-15T17:00:54.659Z,4.90
2022-12-15T17:03:28.874Z,4.90
2022-12-15T17:05:58.067Z,4.80
2022-12-15T17:08:51.055Z,4.80
2022-12-15T17:11:24.182Z,4.80
2022-12-15T17:13:52.666Z,4.80
2022-12-15T17:16:21.132Z,4.80
2022-12-15T17:18:49.752Z,4.70
2022-12-15T17:21:19.761Z,6.20
2022-12-15T17:23:50.422Z,4.70
2022-12-15T17:26:29.034Z,4.70
2022-12-15T17:29:00.948Z,6.00
2022-12-15T17:31:34.779Z,4.70
2022-12-15T17:34:02.699Z,4.70
2022-12-15T17:36:29.445Z,4.70
2022-12-15T17:39:01.718Z,4.60
2022-12-15T17:41:58.015Z,4.50
2022-12-15T17:44:39.293Z,4.70
2022-12-15T17:47:08.547Z,4.70
2022-12-15T17:49:37.487Z,4.60
2022-12-15T17:52:18.946Z,4.60
2022-12-15T17:54:45.768Z,4.60
2022-12-15T17:57:12.992Z,4.60
2022-12-15T17:59:39.883Z,4.60
2022-12-15T18:02:08.990Z,4.60
2022-12-15T18:04:35.786Z,4.70
2022-12-15T18:07:02.872Z,4.60
2022-12-15T18:09:31.032Z,4.70
2022-12-15T18:11:58.191Z,4.70
2022-12-15T18:14:25.003Z,4.70
2022-12-15T18:16:51.796Z,4.70
2022-12-15T18:19:18.461Z,4.70
2022-12-15T18:21:45.239Z,4.70
2022-12-15T18:24:17.212Z,4.80
2022-12-15T18:26:44.343Z,4.60
2022-12-15T18:29:14.053Z,4.60
2022-12-15T18:31:41.955Z,4.70
2022-12-15T18:34:13.941Z,4.60
2022-12-15T18:36:41.022Z,4.50
2022-12-15T18:39:20.036Z,4.50
2022-12-15T18:41:48.268Z,4.60
2022-12-15T18:44:33.167Z,4.60
2022-12-15T18:47:00.157Z,4.60
2022-12-15T18:49:26.951Z,4.60
2022-12-15T18:51:53.847Z,4.60
2022-12-15T18:54:23.612Z,5.00
2022-12-15T18:56:50.877Z,4.60
2022-12-15T18:59:19.165Z,4.70
2022-12-15T19:01:48.303Z,4.70
2022-12-15T19:04:15.363Z,6.20
2022-12-15T19:06:43.015Z,4.60
2022-12-15T19:09:21.717Z,4.70
2022-12-15T19:12:08.053Z,4.60
2022-12-15T19:14:41.077Z,4.60
2022-12-15T19:17:30.903Z,4.60
2022-12-15T19:20:16.476Z,4.70
2022-12-15T19:22:43.974Z,4.60
2022-12-15T19:25:14.057Z,4.70
2022-12-15T19:27:41.023Z,4.70
2022-12-15T19:30:19.467Z,4.70
2022-12-15T19:32:46.585Z,4.70
2022-12-15T19:35:13.467Z,4.60
2022-12-15T19:37:42.942Z,4.60
2022-12-15T19:40:22.214Z,4.60
2022-12-15T19:42:49.671Z,4.70
2022-12-15T19:45:19.690Z,4.60
2022-12-15T19:47:46.881Z,4.60
2022-12-15T19:50:28.802Z,4.60
2022-12-15T19:53:01.909Z,4.50
2022-12-15T19:55:34.754Z,4.60
2022-12-15T19:58:25.261Z,4.60
2022-12-15T20:00:57.014Z,4.60
2022-12-15T20:03:24.991Z,4.50
2022-12-15T20:05:55.710Z,5.10
2022-12-15T20:08:25.268Z,4.50
2022-12-15T20:10:53.835Z,4.50
2022-12-15T20:13:22.178Z,4.50
2022-12-15T20:15:49.427Z,4.50
2022-12-15T20:18:16.202Z,4.50
2022-12-15T20:20:45.443Z,4.50
2022-12-15T20:23:17.257Z,4.50
2022-12-15T20:25:45.032Z,4.50
2022-12-15T20:28:21.659Z,4.50
2022-12-15T20:30:49.473Z,4.50
2022-12-15T20:33:17.133Z,4.60
2022-12-15T20:35:46.424Z,4.70
2022-12-15T20:38:27.683Z,4.70
2022-12-15T20:40:55.652Z,4.70
2022-12-15T20:43:26.085Z,4.70
2022-12-15T20:46:23.182Z,4.60
2022-12-15T20:48:51.716Z,4.50
2022-12-15T20:51:30.548Z,4.50
2022-12-15T20:54:00.785Z,4.50
2022-12-15T20:56:27.733Z,4.50
2022-12-15T20:58:57.164Z,4.50
2022-12-15T21:01:33.645Z,4.60
2022-12-15T21:04:03.497Z,4.50
2022-12-15T21:06:30.963Z,4.50
2022-12-15T21:08:57.715Z,4.40
2022-12-15T21:11:27.416Z,4.40
2022-12-15T21:13:56.717Z,4.40
2022-12-15T21:16:26.653Z,4.40
2022-12-15T21:21:47.670Z,4.40
2022-12-15T21:24:24.660Z,4.30
2022-12-15T21:26:52.199Z,4.30
2022-12-15T21:29:21.777Z,4.30
2022-12-15T21:31:49.134Z,4.40
2022-12-15T21:34:16.191Z,4.20
2022-12-15T21:36:45.447Z,4.20
2022-12-15T21:39:20.284Z,4.30
2022-12-15T21:41:46.910Z,4.20
2022-12-15T21:44:14.856Z,4.20
2022-12-15T21:46:41.961Z,4.20
2022-12-15T21:49:14.678Z,4.10
2022-12-15T21:52:04.387Z,4.20
2022-12-15T21:54:33.200Z,4.30
2022-12-15T21:57:00.310Z,4.30
2022-12-15T21:59:30.493Z,4.30
2022-12-15T22:01:59.212Z,4.30
2022-12-15T22:04:30.366Z,4.20
2022-12-15T22:06:57.069Z,4.20
2022-12-15T22:09:23.941Z,4.80
2022-12-15T22:11:53.791Z,4.20
2022-12-15T22:14:27.785Z,4.30
2022-12-15T22:16:55.225Z,4.20
2022-12-15T22:19:22.815Z,4.20
2022-12-15T22:21:50.040Z,4.20
2022-12-15T22:24:16.793Z,4.30
2022-12-15T22:26:43.669Z,4.30
2022-12-15T22:29:16.679Z,4.40
2022-12-15T22:31:43.781Z,4.40
2022-12-15T22:34:17.060Z,4.30
2022-12-15T22:36:44.376Z,4.40
2022-12-15T22:39:11.383Z,4.30
2022-12-15T22:41:44.646Z,5.30
2022-12-15T22:44:21.233Z,4.30
2022-12-15T22:46:50.297Z,4.40
2022-12-15T22:49:24.126Z,5.30
2022-12-15T22:51:51.018Z,4.40
2022-12-15T22:54:23.951Z,4.40
2022-12-15T22:57:04.219Z,4.30
2022-12-15T22:59:43.968Z,4.30
2022-12-15T23:02:11.326Z,4.40
2022-12-15T23:04:40.137Z,4.40
2022-12-15T23:07:12.289Z,4.40
2022-12-15T23:09:39.051Z,4.40
2022-12-15T23:12:05.994Z,4.40
2022-12-15T23:14:51.507Z,4.40
2022-12-15T23:17:18.392Z,4.40
2022-12-15T23:19:46.205Z,4.40
2022-12-15T23:22:18.018Z,5.20
2022-12-15T23:24:44.655Z,4.40
2022-12-15T23:27:11.839Z,4.40
2022-12-15T23:29:38.495Z,4.30
2022-12-15T23:32:06.235Z,4.30
2022-12-15T23:34:32.979Z,4.40
2022-12-15T23:36:59.873Z,4.40
2022-12-15T23:39:26.673Z,4.50
2022-12-15T23:41:53.500Z,4.20
2022-12-15T23:44:20.166Z,4.20
2022-12-15T23:46:47.014Z,4.20
2022-12-15T23:49:13.733Z,4.10
2022-12-15T23:51:40.407Z,4.10
2022-12-15T23:54:07.136Z,4.10
2022-12-15T23:56:34.034Z,4.10
2022-12-15T23:59:00.689Z,4.10
